Time;durP1;ratioP1;P1;durP2;ratioP2;P2;SDS_P1;SDS_P2;PMS_P1;PMS_P2;Temp;Humidity;BMP_temperature;BMP_pressure;BME280_temperature;BME280_humidity;BME280_pressure;Samples;Min_cycle;Max_cycle;Signal;HPM_P1;HPM_P2
2021/08/02 00:01:16;;;;;;;1.40;1.10;;;20.80;99.90;;;;;;5050430;28;20736;-73
2021/08/02 00:03:50;;;;;;;0.98;0.98;;;20.80;99.90;;;;;;5047892;28;20267;-71
2021/08/02 00:06:22;;;;;;;1.00;1.00;;;20.80;99.90;;;;;;5048709;28;20264;-73
2021/08/02 00:08:57;;;;;;;1.00;1.00;;;20.80;99.90;;;;;;5047786;28;20267;-73
2021/08/02 00:11:34;;;;;;;0.95;0.95;;;20.80;99.90;;;;;;5048094;28;20209;-72
2021/08/02 00:14:04;;;;;;;1.30;1.00;;;20.80;99.90;;;;;;5043006;28;20194;-73
2021/08/02 00:16:33;;;;;;;1.10;1.10;;;20.80;99.90;;;;;;5045296;28;20282;-72
2021/08/02 00:19:00;;;;;;;1.60;1.50;;;20.80;99.90;;;;;;5049815;28;20190;-73
2021/08/02 00:21:27;;;;;;;1.20;1.20;;;20.80;99.90;;;;;;5036881;28;20241;-75
2021/08/02 00:23:54;;;;;;;1.35;1.20;;;20.80;99.90;;;;;;5046951;28;20220;-73
2021/08/02 00:26:23;;;;;;;1.60;1.50;;;20.80;99.90;;;;;;5050775;28;20638;-75
2021/08/02 00:28:51;;;;;;;1.40;1.23;;;20.80;99.90;;;;;;5046865;28;20206;-74
2021/08/02 00:31:18;;;;;;;1.10;1.10;;;20.80;99.90;;;;;;5049377;28;20697;-74
2021/08/02 00:33:47;;;;;;;1.20;1.20;;;20.70;99.90;;;;;;5049192;28;20197;-74
2021/08/02 00:36:20;;;;;;;1.60;1.52;;;20.80;99.90;;;;;;5050916;28;20194;-74
2021/08/02 00:38:52;;;;;;;1.55;1.45;;;20.70;99.90;;;;;;5073798;28;20229;-74
2021/08/02 00:41:28;;;;;;;1.58;1.50;;;20.70;99.90;;;;;;5051653;28;20218;-75
2021/08/02 00:44:25;;;;;;;1.60;1.50;;;20.70;99.90;;;;;;5047600;28;20600;-73
2021/08/02 00:46:59;;;;;;;1.60;1.50;;;20.60;99.90;;;;;;5057672;28;20235;-72
2021/08/02 00:49:28;;;;;;;1.48;1.38;;;20.70;99.90;;;;;;5047204;28;20280;-73
2021/08/02 00:51:57;;;;;;;1.83;1.73;;;20.70;99.90;;;;;;5047055;28;20975;-72
2021/08/02 00:54:27;;;;;;;1.50;1.40;;;20.60;99.90;;;;;;5046343;28;20228;-72
2021/08/02 00:56:59;;;;;;;1.10;1.10;;;20.60;99.90;;;;;;5048817;28;20194;-74
2021/08/02 00:59:30;;;;;;;1.23;1.23;;;20.60;99.90;;;;;;5048000;28;20817;-73
2021/08/02 01:02:00;;;;;;;1.45;1.40;;;20.50;99.90;;;;;;5057871;28;20685;-73
2021/08/02 01:04:32;;;;;;;1.48;1.38;;;20.50;99.90;;;;;;5044713;28;20389;-72
2021/08/02 01:07:01;;;;;;;1.10;1.10;;;20.50;99.90;;;;;;5048977;28;20193;-73
2021/08/02 01:09:32;;;;;;;1.30;1.20;;;20.50;99.90;;;;;;5059657;28;20322;-73
2021/08/02 01:12:03;;;;;;;1.30;1.20;;;20.40;99.90;;;;;;5048091;28;20204;-72
2021/08/02 01:14:31;;;;;;;1.40;1.40;;;20.40;99.90;;;;;;5047110;28;20213;-73
2021/08/02 01:17:00;;;;;;;1.50;1.40;;;20.40;99.90;;;;;;5047452;28;20225;-73
2021/08/02 01:19:30;;;;;;;1.55;1.45;;;20.30;99.90;;;;;;5047220;28;20202;-73
2021/08/02 01:22:00;;;;;;;1.40;1.30;;;20.30;99.90;;;;;;5063095;28;20711;-72
2021/08/02 01:24:29;;;;;;;1.20;1.10;;;20.30;99.90;;;;;;5047426;28;20221;-74
2021/08/02 01:27:29;;;;;;;1.00;1.00;;;20.30;99.90;;;;;;5048479;28;20688;-74
2021/08/02 01:30:29;;;;;;;1.20;1.20;;;20.20;99.90;;;;;;5059900;28;20198;-74
2021/08/02 01:32:59;;;;;;;1.05;1.05;;;20.20;99.90;;;;;;5048273;28;20214;-74
2021/08/02 01:35:28;;;;;;;1.10;1.10;;;20.20;99.90;;;;;;5047050;28;20339;-74
2021/08/02 01:37:56;;;;;;;1.02;1.02;;;20.10;99.90;;;;;;5041010;28;20201;-74
2021/08/02 01:40:28;;;;;;;1.27;1.27;;;20.10;99.90;;;;;;5047448;28;20225;-73
2021/08/02 01:42:57;;;;;;;1.13;1.13;;;20.00;99.90;;;;;;5059548;28;20236;-73
2021/08/02 01:45:26;;;;;;;1.00;1.00;;;20.00;99.90;;;;;;5044709;28;20225;-73
2021/08/02 01:48:02;;;;;;;1.20;1.20;;;20.00;99.90;;;;;;5047875;28;20208;-73
2021/08/02 01:50:40;;;;;;;1.30;1.30;;;20.00;99.90;;;;;;5047408;28;20206;-73
2021/08/02 01:53:19;;;;;;;1.67;1.58;;;20.00;99.90;;;;;;5045461;28;20301;-73
2021/08/02 01:55:58;;;;;;;1.30;1.20;;;19.90;99.90;;;;;;5046688;28;20206;-73
2021/08/02 01:58:30;;;;;;;1.77;1.67;;;19.90;99.90;;;;;;5057607;28;20297;-73
2021/08/02 02:00:59;;;;;;;1.30;1.30;;;19.90;99.90;;;;;;5047146;28;20209;-73
2021/08/02 02:03:30;;;;;;;1.00;1.00;;;19.90;99.90;;;;;;5046722;28;20186;-73
2021/08/02 02:06:12;;;;;;;1.42;1.40;;;19.80;99.90;;;;;;5046724;28;20313;-72
2021/08/02 02:08:43;;;;;;;1.98;1.30;;;19.80;99.90;;;;;;5043811;28;20209;-74
2021/08/02 02:11:28;;;;;;;2.15;1.17;;;19.80;99.90;;;;;;5043895;28;20205;-74
2021/08/02 02:14:06;;;;;;;1.27;1.27;;;19.70;99.90;;;;;;5035627;28;20556;-72
2021/08/02 02:16:37;;;;;;;1.60;1.50;;;19.70;99.90;;;;;;5035820;28;20383;-73
2021/08/02 02:19:06;;;;;;;1.40;1.40;;;19.60;99.90;;;;;;5036168;28;20233;-74
2021/08/02 02:21:35;;;;;;;1.50;1.50;;;19.60;99.90;;;;;;5046336;28;20245;-74
2021/08/02 02:24:07;;;;;;;1.10;1.10;;;19.60;99.90;;;;;;5045173;28;20197;-74
2021/08/02 02:26:38;;;;;;;1.30;1.30;;;19.60;99.90;;;;;;5043631;28;20283;-74
2021/08/02 02:29:11;;;;;;;1.38;1.30;;;19.60;99.90;;;;;;5050207;28;20205;-73
2021/08/02 02:31:40;;;;;;;1.20;1.20;;;19.60;99.90;;;;;;5046972;28;20292;-74
2021/08/02 02:34:14;;;;;;;1.30;1.30;;;19.50;99.90;;;;;;5047080;28;20210;-72
2021/08/02 02:36:45;;;;;;;1.10;1.10;;;19.50;99.90;;;;;;5046027;28;20370;-73
2021/08/02 02:39:16;;;;;;;1.20;1.20;;;19.50;99.90;;;;;;5044247;28;20220;-73
2021/08/02 02:41:46;;;;;;;1.20;1.20;;;19.40;99.90;;;;;;5047614;28;20206;-73
2021/08/02 02:44:16;;;;;;;1.52;1.50;;;19.40;99.90;;;;;;5046046;28;20692;-73
2021/08/02 02:46:43;;;;;;;1.48;1.38;;;19.40;99.90;;;;;;5048447;28;20278;-73
2021/08/02 02:49:13;;;;;;;1.20;1.20;;;19.30;99.90;;;;;;5045203;28;20205;-72
2021/08/02 02:51:40;;;;;;;1.60;1.30;;;19.30;99.90;;;;;;5047038;28;20210;-74
2021/08/02 02:54:08;;;;;;;0.80;0.80;;;19.30;99.90;;;;;;5044414;28;20284;-73
2021/08/02 02:56:37;;;;;;;1.10;1.10;;;19.30;99.90;;;;;;5045851;28;20228;-73
2021/08/02 02:59:06;;;;;;;1.30;1.20;;;19.30;99.90;;;;;;5046611;28;20190;-73
2021/08/02 03:01:38;;;;;;;1.15;1.15;;;19.30;99.90;;;;;;5046249;28;20205;-73
2021/08/02 03:04:09;;;;;;;1.20;1.20;;;19.20;99.90;;;;;;5046564;28;20679;-73
2021/08/02 03:06:36;;;;;;;1.05;1.05;;;19.30;99.90;;;;;;5046955;28;20198;-73
2021/08/02 03:09:04;;;;;;;1.33;1.10;;;19.20;99.90;;;;;;5044651;28;20190;-73
2021/08/02 03:11:33;;;;;;;1.00;1.00;;;19.20;99.90;;;;;;5046248;28;20198;-73
2021/08/02 03:14:00;;;;;;;1.10;1.10;;;19.20;99.90;;;;;;5034032;28;20681;-73
2021/08/02 03:16:29;;;;;;;1.10;1.10;;;19.20;99.90;;;;;;5049883;28;20224;-73
2021/08/02 03:18:55;;;;;;;1.20;1.20;;;19.20;99.90;;;;;;5050965;28;20220;-73
2021/08/02 03:21:22;;;;;;;2.42;1.27;;;19.20;99.90;;;;;;5050116;28;20284;-73
2021/08/02 03:24:02;;;;;;;1.20;1.20;;;19.20;99.90;;;;;;5049314;28;20695;-73
2021/08/02 03:26:34;;;;;;;0.98;0.98;;;19.20;99.90;;;;;;5049362;28;20247;-73
2021/08/02 03:29:07;;;;;;;1.40;1.30;;;19.10;99.90;;;;;;5058037;28;20687;-73
2021/08/02 03:31:43;;;;;;;1.77;1.67;;;19.10;99.90;;;;;;5050014;28;20201;-73
2021/08/02 03:34:14;;;;;;;1.60;1.50;;;19.10;99.90;;;;;;5050799;28;20553;-73
2021/08/02 03:36:43;;;;;;;1.40;1.40;;;19.10;99.90;;;;;;5050931;28;20197;-74
2021/08/02 03:39:11;;;;;;;1.17;1.17;;;19.10;99.90;;;;;;5047247;28;20198;-74
2021/08/02 03:41:41;;;;;;;1.50;1.40;;;19.10;99.90;;;;;;5049587;28;20214;-73
2021/08/02 03:44:11;;;;;;;1.40;1.30;;;19.10;99.90;;;;;;5050377;28;20202;-73
2021/08/02 03:46:40;;;;;;;1.25;1.25;;;19.10;99.90;;;;;;5048449;28;20240;-72
2021/08/02 03:49:07;;;;;;;1.60;1.50;;;19.20;99.90;;;;;;5049842;28;20585;-73
2021/08/02 03:51:35;;;;;;;1.60;1.50;;;19.20;99.90;;;;;;5049447;28;20197;-72
2021/08/02 03:54:03;;;;;;;1.50;1.40;;;19.20;99.90;;;;;;5046609;28;20293;-72
2021/08/02 03:56:30;;;;;;;1.33;1.30;;;19.20;99.90;;;;;;5047588;28;20228;-73
2021/08/02 03:58:57;;;;;;;1.13;1.13;;;19.20;99.90;;;;;;5049779;28;20194;-73
2021/08/02 04:01:24;;;;;;;1.70;1.60;;;19.20;99.90;;;;;;5048904;28;20208;-74
2021/08/02 04:03:53;;;;;;;1.55;1.45;;;19.20;99.90;;;;;;5048665;28;20296;-72
2021/08/02 04:06:20;;;;;;;1.75;1.65;;;19.20;99.90;;;;;;5050310;28;20981;-73
2021/08/02 04:08:48;;;;;;;1.33;1.33;;;19.20;99.90;;;;;;5057396;28;20959;-73
2021/08/02 04:11:14;;;;;;;1.83;1.65;;;19.20;99.90;;;;;;5048529;28;20220;-73
2021/08/02 04:13:41;;;;;;;1.90;1.80;;;19.20;99.90;;;;;;5048554;28;20208;-72
2021/08/02 04:16:08;;;;;;;1.63;1.52;;;19.20;99.90;;;;;;5049755;28;20206;-73
2021/08/02 04:18:35;;;;;;;2.10;1.70;;;19.30;99.90;;;;;;5047814;28;20588;-73
2021/08/02 04:21:04;;;;;;;1.75;1.58;;;19.30;99.90;;;;;;5049887;28;20875;-73
2021/08/02 04:23:30;;;;;;;2.05;1.50;;;19.30;99.90;;;;;;5046147;28;20661;-73
2021/08/02 04:25:57;;;;;;;1.77;1.67;;;19.40;99.90;;;;;;5049343;28;20221;-73
2021/08/02 04:28:24;;;;;;;1.67;1.60;;;19.40;99.90;;;;;;5053671;28;20346;-72
2021/08/02 04:30:51;;;;;;;1.50;1.40;;;19.50;99.90;;;;;;5067809;28;20685;-72
2021/08/02 04:33:18;;;;;;;1.60;1.50;;;19.50;99.90;;;;;;5047777;28;20684;-74
2021/08/02 04:35:45;;;;;;;1.15;1.15;;;19.50;99.90;;;;;;5049352;28;20198;-72
2021/08/02 04:38:14;;;;;;;2.00;1.40;;;19.60;99.90;;;;;;5047029;28;20220;-73
2021/08/02 04:40:40;;;;;;;1.33;1.30;;;19.50;99.90;;;;;;5049856;28;20200;-73
2021/08/02 04:43:07;;;;;;;1.20;1.10;;;19.60;99.90;;;;;;5048760;28;20704;-74
2021/08/02 04:45:34;;;;;;;1.40;1.30;;;19.60;99.90;;;;;;5047652;28;20217;-73
2021/08/02 04:48:01;;;;;;;1.50;1.40;;;19.70;99.90;;;;;;5050959;28;20669;-73
2021/08/02 04:50:28;;;;;;;1.10;1.10;;;19.70;99.90;;;;;;5050006;28;20206;-75
2021/08/02 04:52:55;;;;;;;1.20;1.10;;;19.70;99.90;;;;;;5047355;28;20200;-73
2021/08/02 04:55:24;;;;;;;1.23;1.13;;;19.80;99.90;;;;;;5047557;28;20197;-73
2021/08/02 04:57:51;;;;;;;1.40;1.30;;;19.80;99.90;;;;;;5047021;28;20240;-73
2021/08/02 05:00:18;;;;;;;1.50;1.40;;;19.80;99.90;;;;;;5048530;28;20249;-73
2021/08/02 05:02:45;;;;;;;1.73;1.63;;;19.80;99.90;;;;;;5048395;28;20198;-72
2021/08/02 05:05:12;;;;;;;1.58;1.48;;;19.80;99.90;;;;;;5048755;28;20248;-74
2021/08/02 05:07:39;;;;;;;1.50;1.50;;;19.80;99.90;;;;;;5046195;28;20266;-73
2021/08/02 05:10:07;;;;;;;1.50;1.40;;;19.90;99.90;;;;;;5048990;28;20194;-73
2021/08/02 05:12:36;;;;;;;1.40;1.40;;;20.00;99.90;;;;;;5046574;28;20230;-72
2021/08/02 05:15:07;;;;;;;1.35;1.33;;;20.20;99.90;;;;;;5043662;28;20202;-74
2021/08/02 05:17:34;;;;;;;1.65;1.55;;;20.40;99.90;;;;;;5045828;28;20209;-74
2021/08/02 05:20:01;;;;;;;1.40;1.30;;;20.60;99.90;;;;;;5049267;28;20234;-75
2021/08/02 05:22:28;;;;;;;1.50;1.40;;;20.90;99.90;;;;;;5044731;28;20202;-73
2021/08/02 05:24:55;;;;;;;1.38;1.30;;;21.00;99.90;;;;;;5048879;28;20304;-72
2021/08/02 05:27:22;;;;;;;1.27;1.17;;;21.10;99.90;;;;;;5046467;28;20220;-73
2021/08/02 05:29:50;;;;;;;1.65;1.55;;;21.20;99.90;;;;;;5050508;28;20220;-74
2021/08/02 05:32:18;;;;;;;2.03;1.65;;;21.20;99.90;;;;;;5046712;28;20312;-74
2021/08/02 05:34:45;;;;;;;1.25;1.20;;;21.30;99.90;;;;;;5044056;28;20198;-74
2021/08/02 05:37:13;;;;;;;1.20;1.10;;;21.40;99.90;;;;;;5040693;28;20673;-74
2021/08/02 05:39:41;;;;;;;1.63;1.52;;;21.40;99.90;;;;;;5047573;28;20204;-74
2021/08/02 05:42:08;;;;;;;1.60;1.50;;;21.40;99.90;;;;;;5048405;28;20198;-73
2021/08/02 05:44:36;;;;;;;1.60;1.50;;;21.40;99.90;;;;;;5046793;28;20206;-73
2021/08/02 05:47:11;;;;;;;1.40;1.40;;;21.30;99.90;;;;;;5047404;28;20221;-73
2021/08/02 05:49:38;;;;;;;1.27;1.17;;;21.30;99.90;;;;;;5046719;28;20227;-73
2021/08/02 05:52:05;;;;;;;2.03;1.38;;;21.20;99.90;;;;;;5047658;28;20197;-74
2021/08/02 05:54:32;;;;;;;1.23;1.23;;;21.20;99.90;;;;;;5046503;28;20300;-73
2021/08/02 05:56:59;;;;;;;1.50;1.40;;;21.20;99.90;;;;;;5047194;28;20194;-74
2021/08/02 05:59:26;;;;;;;1.48;1.38;;;21.20;99.90;;;;;;5046414;28;20200;-74
2021/08/02 06:01:53;;;;;;;1.38;1.35;;;21.20;99.90;;;;;;5046452;28;20213;-73
2021/08/02 06:04:21;;;;;;;1.10;1.10;;;21.10;99.90;;;;;;5048783;28;20522;-73
2021/08/02 06:06:48;;;;;;;1.58;1.50;;;21.10;99.90;;;;;;5038095;28;20248;-73
2021/08/02 06:09:15;;;;;;;1.25;1.20;;;21.10;99.90;;;;;;5032742;28;20325;-74
2021/08/02 06:11:41;;;;;;;1.15;1.10;;;21.10;99.90;;;;;;5031227;28;20214;-72
2021/08/02 06:14:08;;;;;;;1.20;1.20;;;21.20;99.90;;;;;;5042146;28;20205;-75
2021/08/02 06:16:35;;;;;;;1.40;1.27;;;21.20;99.90;;;;;;5032707;28;20185;-73
2021/08/02 06:19:02;;;;;;;1.48;1.38;;;21.30;99.90;;;;;;5038269;28;20262;-73
2021/08/02 06:21:31;;;;;;;2.08;1.60;;;21.30;99.90;;;;;;5041399;28;20321;-74
2021/08/02 06:23:58;;;;;;;1.73;1.40;;;21.40;99.90;;;;;;5039559;28;20364;-72
2021/08/02 06:26:24;;;;;;;1.30;1.30;;;21.50;99.90;;;;;;5038383;28;20221;-74
2021/08/02 06:28:52;;;;;;;1.35;1.20;;;21.60;99.90;;;;;;5042070;28;20842;-72
2021/08/02 06:31:19;;;;;;;1.20;1.20;;;21.80;99.90;;;;;;5044778;28;20662;-73
2021/08/02 06:33:46;;;;;;;1.02;1.02;;;22.10;99.90;;;;;;5038321;28;20201;-73
2021/08/02 06:36:17;;;;;;;1.15;1.15;;;22.30;99.90;;;;;;5041756;28;20199;-74
2021/08/02 06:38:45;;;;;;;2.15;1.00;;;22.40;99.90;;;;;;5040844;28;20197;-72
2021/08/02 06:41:12;;;;;;;1.30;1.20;;;22.60;99.90;;;;;;5043410;28;20752;-73
2021/08/02 06:43:39;;;;;;;1.00;1.00;;;23.90;99.90;;;;;;5043402;28;20598;-74
2021/08/02 06:46:07;;;;;;;1.73;1.30;;;26.70;99.90;;;;;;5043909;28;20221;-73
2021/08/02 06:48:34;;;;;;;1.40;1.30;;;29.90;97.40;;;;;;5040249;28;20276;-74
2021/08/02 06:51:01;;;;;;;1.00;1.00;;;32.90;89.80;;;;;;5049953;28;20694;-74
2021/08/02 06:53:28;;;;;;;1.40;1.30;;;35.50;73.80;;;;;;5047575;28;20201;-74
2021/08/02 06:55:56;;;;;;;1.17;1.00;;;37.60;62.90;;;;;;5050119;28;20196;-74
2021/08/02 06:58:23;;;;;;;1.92;1.50;;;37.60;58.10;;;;;;5048752;28;20189;-75
2021/08/02 07:00:50;;;;;;;1.25;1.23;;;37.30;55.60;;;;;;5049240;28;20194;-74
2021/08/02 07:03:17;;;;;;;1.42;1.33;;;36.10;55.50;;;;;;5049742;28;20208;-73
2021/08/02 07:05:44;;;;;;;1.25;1.23;;;34.70;56.80;;;;;;5048738;28;20216;-73
2021/08/02 07:08:11;;;;;;;1.15;1.00;;;33.30;57.50;;;;;;5045304;28;20259;-75
2021/08/02 07:10:38;;;;;;;0.90;0.90;;;33.30;59.00;;;;;;5051504;28;20271;-74
2021/08/02 07:13:06;;;;;;;0.85;0.85;;;33.80;57.90;;;;;;5046897;28;20218;-74
2021/08/02 07:15:33;;;;;;;3.47;1.20;;;33.90;57.20;;;;;;5045625;28;20225;-73
2021/08/02 07:18:00;;;;;;;1.52;1.40;;;34.50;56.00;;;;;;5049970;28;20200;-73
2021/08/02 07:20:27;;;;;;;1.42;1.05;;;36.30;53.50;;;;;;5048402;28;20244;-73
2021/08/02 07:22:54;;;;;;;1.35;1.35;;;38.60;50.70;;;;;;5045662;28;20193;-75
2021/08/02 07:25:21;;;;;;;1.20;1.20;;;41.00;47.40;;;;;;5048379;28;20722;-74
2021/08/02 07:27:48;;;;;;;1.75;1.65;;;43.00;43.50;;;;;;5044309;28;20224;-74
2021/08/02 07:30:17;;;;;;;1.70;1.60;;;44.40;39.20;;;;;;5047930;28;20833;-74
2021/08/02 07:32:44;;;;;;;1.92;1.83;;;45.10;37.00;;;;;;5063459;28;20193;-75
2021/08/02 07:35:11;;;;;;;1.83;1.73;;;46.30;35.40;;;;;;5050019;28;20634;-73
2021/08/02 07:37:41;;;;;;;1.73;1.73;;;47.20;33.00;;;;;;5046417;28;20197;-73
2021/08/02 07:40:10;;;;;;;2.10;1.90;;;47.50;30.60;;;;;;5045197;28;20188;-73
2021/08/02 07:42:37;;;;;;;2.33;2.08;;;47.90;30.00;;;;;;5047346;28;20212;-74
2021/08/02 07:45:05;;;;;;;2.08;1.90;;;47.70;29.40;;;;;;5044414;28;20221;-74
2021/08/02 07:47:33;;;;;;;1.63;1.52;;;46.50;28.90;;;;;;5047394;28;20244;-73
2021/08/02 07:50:00;;;;;;;2.00;1.90;;;44.90;29.90;;;;;;5043538;28;20398;-74
2021/08/02 07:52:27;;;;;;;2.00;1.90;;;43.50;30.30;;;;;;5047085;28;20376;-73
2021/08/02 07:54:54;;;;;;;1.80;1.70;;;42.00;31.50;;;;;;5046138;28;20193;-74
2021/08/02 07:57:21;;;;;;;1.75;1.65;;;40.70;32.90;;;;;;5045005;28;20199;-74
2021/08/02 07:59:48;;;;;;;1.85;1.77;;;39.80;33.50;;;;;;5045701;28;20562;-73
2021/08/02 08:02:15;;;;;;;1.73;1.63;;;39.20;34.00;;;;;;5047259;28;20212;-74
2021/08/02 08:04:43;;;;;;;1.40;1.40;;;38.50;34.50;;;;;;5043802;28;20194;-73
2021/08/02 08:07:10;;;;;;;1.70;1.70;;;38.00;35.10;;;;;;5042222;28;20221;-73
2021/08/02 08:09:37;;;;;;;1.80;1.70;;;37.60;35.30;;;;;;5043933;28;20792;-72
2021/08/02 08:12:04;;;;;;;1.38;1.33;;;37.50;35.40;;;;;;5042838;28;20189;-73
2021/08/02 08:14:31;;;;;;;1.30;1.30;;;37.60;35.30;;;;;;5045473;28;20186;-73
2021/08/02 08:16:58;;;;;;;1.42;1.42;;;37.70;34.80;;;;;;5044367;28;20283;-73
2021/08/02 08:19:25;;;;;;;1.40;1.30;;;37.30;34.70;;;;;;5045104;28;20193;-73
2021/08/02 08:21:54;;;;;;;1.40;1.40;;;36.80;35.10;;;;;;5045276;28;20198;-73
2021/08/02 08:24:21;;;;;;;1.48;1.40;;;37.40;35.00;;;;;;5045194;28;20198;-73
2021/08/02 08:26:48;;;;;;;1.70;1.60;;;37.80;34.20;;;;;;5041670;28;20233;-74
2021/08/02 08:29:14;;;;;;;2.50;2.00;;;39.10;34.10;;;;;;5045466;28;20934;-73
2021/08/02 08:31:41;;;;;;;2.00;1.70;;;39.20;32.60;;;;;;5043928;28;20197;-74
2021/08/02 08:34:08;;;;;;;1.75;1.65;;;38.40;33.00;;;;;;5058752;28;20205;-73
2021/08/02 08:36:35;;;;;;;1.55;1.45;;;37.70;33.60;;;;;;5044214;28;20197;-73
2021/08/02 08:39:04;;;;;;;3.10;1.67;;;36.60;33.90;;;;;;5036470;28;20254;-73
2021/08/02 08:41:31;;;;;;;1.60;1.50;;;35.50;34.90;;;;;;5044173;28;20194;-73
2021/08/02 08:43:58;;;;;;;1.50;1.40;;;34.50;36.20;;;;;;5061150;28;20209;-74
2021/08/02 08:46:25;;;;;;;1.83;1.58;;;33.70;36.80;;;;;;5046035;28;20585;-73
2021/08/02 08:48:52;;;;;;;1.20;1.20;;;33.10;37.30;;;;;;5043888;28;20202;-74
2021/08/02 08:51:20;;;;;;;1.08;1.08;;;32.40;37.80;;;;;;5039755;28;20764;-74
2021/08/02 08:53:48;;;;;;;2.28;1.33;;;31.90;38.40;;;;;;5054338;28;20205;-74
2021/08/02 08:56:18;;;;;;;1.13;1.13;;;31.60;39.00;;;;;;5041717;28;20843;-74
2021/08/02 08:58:45;;;;;;;1.10;1.10;;;31.50;39.40;;;;;;5034881;28;20213;-74
2021/08/02 09:01:13;;;;;;;1.00;1.00;;;31.30;39.60;;;;;;5043782;28;20248;-73
2021/08/02 09:03:51;;;;;;;1.00;1.00;;;31.00;39.90;;;;;;5044384;28;20306;-72
2021/08/02 09:06:19;;;;;;;1.17;1.17;;;30.70;40.30;;;;;;5037375;28;20276;-73
2021/08/02 09:08:46;;;;;;;1.10;1.10;;;30.40;40.70;;;;;;5053661;28;20201;-73
2021/08/02 09:11:19;;;;;;;2.65;1.45;;;30.30;40.90;;;;;;5041537;28;20206;-74
2021/08/02 09:13:47;;;;;;;0.90;0.90;;;30.50;40.90;;;;;;5039367;28;20612;-73
2021/08/02 09:16:16;;;;;;;1.27;1.27;;;31.50;40.50;;;;;;5037796;28;20190;-73
2021/08/02 09:18:55;;;;;;;1.55;1.27;;;33.20;39.40;;;;;;5042434;28;20190;-74
2021/08/02 09:21:23;;;;;;;1.00;1.00;;;35.80;37.40;;;;;;5039393;28;20237;-74
2021/08/02 09:23:50;;;;;;;2.60;1.67;;;38.40;34.70;;;;;;5039778;28;20201;-75
2021/08/02 09:26:29;;;;;;;1.25;1.15;;;40.10;32.70;;;;;;5043363;28;20201;-74
2021/08/02 09:28:56;;;;;;;1.70;1.60;;;41.70;30.90;;;;;;5044287;28;20193;-75
2021/08/02 09:31:32;;;;;;;1.90;1.65;;;43.20;29.60;;;;;;5040695;28;20854;-75
2021/08/02 09:34:02;;;;;;;1.65;1.55;;;44.50;28.10;;;;;;5057989;28;20208;-75
2021/08/02 09:36:41;;;;;;;2.03;1.83;;;45.40;27.60;;;;;;5044862;28;20201;-75
2021/08/02 09:39:10;;;;;;;2.85;1.60;;;46.50;27.10;;;;;;5056353;28;20217;-75
2021/08/02 09:41:38;;;;;;;2.08;1.83;;;47.60;26.40;;;;;;5045408;28;20216;-75
2021/08/02 09:44:06;;;;;;;2.00;1.90;;;48.50;25.60;;;;;;5041229;28;20193;-75
2021/08/02 09:46:34;;;;;;;2.58;2.38;;;49.50;24.90;;;;;;5044768;28;21054;-75
2021/08/02 09:49:03;;;;;;;2.65;2.45;;;49.90;23.40;;;;;;5059111;28;20281;-75
2021/08/02 09:51:42;;;;;;;2.00;1.90;;;50.20;23.00;;;;;;5042097;28;20213;-75
2021/08/02 09:54:09;;;;;;;2.00;1.90;;;50.00;23.10;;;;;;5036430;28;20228;-75
2021/08/02 09:56:38;;;;;;;1.92;1.92;;;49.90;23.10;;;;;;5044152;28;20200;-75
2021/08/02 09:59:09;;;;;;;2.17;2.08;;;49.30;23.00;;;;;;5040694;28;20197;-74
2021/08/02 10:01:37;;;;;;;1.98;1.90;;;47.70;23.40;;;;;;5045385;28;20677;-74
2021/08/02 10:04:05;;;;;;;2.25;2.15;;;47.80;23.40;;;;;;5055614;28;20215;-74
2021/08/02 10:06:33;;;;;;;2.30;2.20;;;47.90;22.70;;;;;;5041826;28;20209;-76
2021/08/02 10:09:00;;;;;;;1.70;1.60;;;47.40;22.90;;;;;;5038707;28;20209;-74
2021/08/02 10:11:27;;;;;;;2.25;2.05;;;47.40;22.70;;;;;;5040387;28;20276;-75
2021/08/02 10:13:56;;;;;;;2.00;1.90;;;48.30;22.50;;;;;;5044489;28;20713;-75
2021/08/02 10:16:27;;;;;;;2.10;2.00;;;49.10;22.10;;;;;;5042996;28;20198;-75
2021/08/02 10:19:02;;;;;;;2.03;1.92;;;48.90;21.60;;;;;;5040175;28;20292;-74
2021/08/02 10:21:41;;;;;;;2.05;1.90;;;47.70;21.90;;;;;;5044353;28;20264;-74
2021/08/02 10:24:09;;;;;;;2.20;2.10;;;45.90;22.80;;;;;;5039745;28;20640;-73
2021/08/02 10:26:36;;;;;;;2.45;2.25;;;44.30;23.40;;;;;;5041942;28;20223;-74
2021/08/02 10:29:07;;;;;;;2.35;2.25;;;43.00;24.20;;;;;;5040548;28;21449;-74
2021/08/02 10:31:46;;;;;;;2.17;2.08;;;43.30;24.70;;;;;;5046188;28;20217;-75
2021/08/02 10:34:14;;;;;;;3.33;2.05;;;44.10;25.00;;;;;;5039067;28;20193;-74
2021/08/02 10:36:41;;;;;;;2.17;1.92;;;43.40;24.40;;;;;;5044737;28;20273;-72
2021/08/02 10:39:11;;;;;;;1.52;1.52;;;42.00;25.20;;;;;;5041056;28;20542;-74
2021/08/02 10:41:38;;;;;;;1.80;1.70;;;40.40;26.60;;;;;;5056706;28;20239;-74
2021/08/02 10:44:15;;;;;;;1.55;1.55;;;38.90;26.90;;;;;;5040389;28;20791;-74
2021/08/02 10:46:42;;;;;;;1.50;1.50;;;37.70;27.60;;;;;;5041128;28;20224;-74
2021/08/02 10:49:12;;;;;;;1.42;1.42;;;36.80;28.30;;;;;;5056274;28;20200;-74
2021/08/02 10:51:47;;;;;;;1.60;1.50;;;37.80;28.40;;;;;;5041534;28;20201;-73
2021/08/02 10:54:14;;;;;;;1.70;1.60;;;39.40;27.70;;;;;;5040329;28;20507;-73
2021/08/02 10:56:41;;;;;;;1.95;1.85;;;40.20;27.20;;;;;;5040371;28;20201;-74
2021/08/02 10:59:08;;;;;;;1.95;1.73;;;41.50;26.80;;;;;;5037191;28;20194;-73
2021/08/02 11:01:46;;;;;;;2.10;2.00;;;43.00;26.00;;;;;;5032556;28;21131;-74
2021/08/02 11:04:15;;;;;;;3.30;1.85;;;42.70;25.40;;;;;;5044072;28;20733;-74
2021/08/02 11:06:42;;;;;;;1.95;1.80;;;43.10;25.40;;;;;;5040820;28;20193;-73
2021/08/02 11:09:09;;;;;;;2.08;1.98;;;44.30;24.60;;;;;;5030999;28;20220;-74
2021/08/02 11:11:37;;;;;;;3.17;2.17;;;45.60;23.80;;;;;;5043326;28;20189;-74
2021/08/02 11:14:09;;;;;;;3.13;2.92;;;46.50;23.10;;;;;;5059208;28;20244;-73
2021/08/02 11:16:40;;;;;;;3.00;2.25;;;46.50;22.90;;;;;;5041660;28;20542;-73
2021/08/02 11:19:18;;;;;;;1.98;1.92;;;45.10;23.30;;;;;;5043018;28;20204;-74
2021/08/02 11:21:46;;;;;;;1.77;1.67;;;43.00;24.00;;;;;;5041748;28;20823;-74
2021/08/02 11:24:13;;;;;;;1.90;1.80;;;41.20;24.80;;;;;;5042054;28;20251;-73
2021/08/02 11:26:48;;;;;;;2.30;2.10;;;39.80;25.80;;;;;;5041797;28;20287;-74
2021/08/02 11:29:20;;;;;;;2.45;2.22;;;38.70;26.50;;;;;;5041258;28;20197;-73
2021/08/02 11:32:03;;;;;;;1.70;1.60;;;37.70;27.10;;;;;;5042239;28;20232;-73
2021/08/02 11:34:32;;;;;;;2.47;2.08;;;36.80;27.70;;;;;;5031514;28;20585;-74
2021/08/02 11:37:04;;;;;;;1.63;1.52;;;36.20;28.10;;;;;;5047174;28;20189;-73
2021/08/02 11:39:33;;;;;;;1.80;1.70;;;35.60;28.40;;;;;;5044283;28;20221;-74
2021/08/02 11:42:05;;;;;;;2.00;1.88;;;35.20;28.90;;;;;;5062324;28;21271;-73
2021/08/02 11:44:33;;;;;;;4.05;1.70;;;35.20;29.30;;;;;;5045338;28;20713;-74
2021/08/02 11:47:03;;;;;;;1.38;1.38;;;36.30;28.70;;;;;;5061822;28;20200;-73
2021/08/02 11:49:34;;;;;;;1.70;1.48;;;36.90;28.30;;;;;;5046856;28;20633;-73
2021/08/02 11:52:02;;;;;;;1.50;1.50;;;36.60;27.90;;;;;;5046796;28;21046;-73
2021/08/02 11:54:29;;;;;;;1.90;1.70;;;36.10;28.00;;;;;;5044332;28;20198;-74
2021/08/02 11:56:55;;;;;;;1.20;1.20;;;36.20;27.70;;;;;;5046339;28;20193;-73
2021/08/02 11:59:24;;;;;;;4.05;1.63;;;36.60;27.20;;;;;;5049070;28;20209;-74
2021/08/02 12:01:52;;;;;;;1.50;1.50;;;36.20;27.20;;;;;;5044869;28;20235;-73
2021/08/02 12:04:22;;;;;;;2.75;1.80;;;35.70;27.70;;;;;;5046336;28;20193;-74
2021/08/02 12:06:52;;;;;;;1.67;1.52;;;35.10;28.00;;;;;;5061655;28;20208;-73
2021/08/02 12:09:30;;;;;;;2.13;1.63;;;34.40;28.50;;;;;;5043299;28;20327;-74
2021/08/02 12:11:58;;;;;;;2.30;1.70;;;33.70;29.10;;;;;;5045864;28;20645;-74
2021/08/02 12:14:26;;;;;;;1.70;1.55;;;32.90;29.90;;;;;;5042822;28;20217;-74
2021/08/02 12:17:04;;;;;;;1.70;1.60;;;32.10;31.60;;;;;;5061193;28;20312;-74
2021/08/02 12:19:43;;;;;;;2.28;1.45;;;31.40;32.50;;;;;;5043689;28;20221;-73
2021/08/02 12:22:11;;;;;;;1.58;1.30;;;30.80;33.20;;;;;;5043931;28;20233;-73
2021/08/02 12:24:52;;;;;;;1.38;1.02;;;30.20;33.60;;;;;;5045081;28;20197;-72
2021/08/02 12:27:21;;;;;;;2.90;1.20;;;29.80;34.10;;;;;;5045559;28;20585;-74
2021/08/02 12:29:59;;;;;;;1.23;1.13;;;29.40;34.60;;;;;;5046985;28;20213;-73
2021/08/02 12:32:37;;;;;;;1.30;1.23;;;29.10;35.10;;;;;;5059035;28;20581;-73
2021/08/02 12:35:09;;;;;;;1.17;1.17;;;28.80;35.30;;;;;;5044986;28;20197;-73
2021/08/02 12:37:36;;;;;;;1.00;1.00;;;28.50;35.50;;;;;;5044586;28;20194;-73
2021/08/02 12:40:07;;;;;;;1.30;1.20;;;28.20;35.60;;;;;;5045584;28;20201;-73
2021/08/02 12:42:35;;;;;;;1.48;1.38;;;28.00;35.90;;;;;;5059841;28;20574;-74
2021/08/02 12:45:01;;;;;;;2.10;1.50;;;27.80;36.50;;;;;;5040757;28;20198;-74
2021/08/02 12:47:29;;;;;;;3.00;1.50;;;27.60;36.90;;;;;;5042465;28;20194;-72
2021/08/02 12:49:57;;;;;;;3.05;1.35;;;27.50;37.20;;;;;;5038897;28;20646;-73
2021/08/02 12:52:28;;;;;;;0.90;0.90;;;27.50;37.40;;;;;;5059800;28;20194;-72
2021/08/02 12:54:57;;;;;;;1.00;1.00;;;27.60;37.50;;;;;;5043956;28;20305;-73
2021/08/02 12:57:26;;;;;;;1.70;1.00;;;27.70;37.50;;;;;;5038942;28;20190;-73
2021/08/02 12:59:57;;;;;;;1.20;1.10;;;27.70;38.30;;;;;;5038017;28;20217;-73